sensor_id;sensor_type;location;lat;lon;timestamp;temperature;humidity
14489;DHT22;7330;50.804;4.550;2024-03-29T00:01:42;11.50;96.60
14489;DHT22;7330;50.804;4.550;2024-03-29T00:04:09;11.50;96.60
14489;DHT22;7330;50.804;4.550;2024-03-29T00:06:35;11.50;96.40
14489;DHT22;7330;50.804;4.550;2024-03-29T00:09:01;11.50;96.50
14489;DHT22;7330;50.804;4.550;2024-03-29T00:13:52;11.50;96.80
14489;DHT22;7330;50.804;4.550;2024-03-29T00:16:18;11.50;96.60
14489;DHT22;7330;50.804;4.550;2024-03-29T00:18:44;11.50;96.40
14489;DHT22;7330;50.804;4.550;2024-03-29T00:21:11;11.50;96.60
14489;DHT22;7330;50.804;4.550;2024-03-29T00:23:37;11.40;96.50
14489;DHT22;7330;50.804;4.550;2024-03-29T00:26:03;11.50;96.40
14489;DHT22;7330;50.804;4.550;2024-03-29T00:28:29;11.50;96.30
14489;DHT22;7330;50.804;4.550;2024-03-29T00:35:46;11.50;96.80
14489;DHT22;7330;50.804;4.550;2024-03-29T00:43:06;11.50;96.60
14489;DHT22;7330;50.804;4.550;2024-03-29T00:45:31;11.60;96.60
14489;DHT22;7330;50.804;4.550;2024-03-29T00:50:23;11.50;96.20
14489;DHT22;7330;50.804;4.550;2024-03-29T01:07:27;11.60;96.10
14489;DHT22;7330;50.804;4.550;2024-03-29T01:14:45;11.60;97.20
14489;DHT22;7330;50.804;4.550;2024-03-29T01:22:03;11.60;97.00
14489;DHT22;7330;50.804;4.550;2024-03-29T01:26:57;11.70;97.20
14489;DHT22;7330;50.804;4.550;2024-03-29T01:31:49;11.70;97.10
14489;DHT22;7330;50.804;4.550;2024-03-29T01:41:33;11.70;98.20
14489;DHT22;7330;50.804;4.550;2024-03-29T01:46:27;11.70;98.40
14489;DHT22;7330;50.804;4.550;2024-03-29T01:48:54;11.70;98.70
14489;DHT22;7330;50.804;4.550;2024-03-29T01:51:22;11.60;98.60
14489;DHT22;7330;50.804;4.550;2024-03-29T01:53:49;11.60;99.20
14489;DHT22;7330;50.804;4.550;2024-03-29T01:56:16;11.60;99.50
14489;DHT22;7330;50.804;4.550;2024-03-29T02:01:10;11.50;99.80
14489;DHT22;7330;50.804;4.550;2024-03-29T02:03:39;11.50;99.90
14489;DHT22;7330;50.804;4.550;2024-03-29T02:06:06;11.60;99.90
14489;DHT22;7330;50.804;4.550;2024-03-29T02:11:01;11.60;99.90
14489;DHT22;7330;50.804;4.550;2024-03-29T02:13:29;11.50;99.90
14489;DHT22;7330;50.804;4.550;2024-03-29T02:15:57;11.50;99.90
14489;DHT22;7330;50.804;4.550;2024-03-29T02:33:09;11.50;99.90
14489;DHT22;7330;50.804;4.550;2024-03-29T02:38:03;11.50;99.90
14489;DHT22;7330;50.804;4.550;2024-03-29T02:40:29;11.40;99.90
14489;DHT22;7330;50.804;4.550;2024-03-29T02:47:50;11.40;99.90
14489;DHT22;7330;50.804;4.550;2024-03-29T02:50:17;11.30;99.90
14489;DHT22;7330;50.804;4.550;2024-03-29T02:52:44;11.30;99.90
14489;DHT22;7330;50.804;4.550;2024-03-29T02:57:37;11.30;99.90
14489;DHT22;7330;50.804;4.550;2024-03-29T03:02:30;11.20;99.90
14489;DHT22;7330;50.804;4.550;2024-03-29T03:04:56;11.10;99.90
14489;DHT22;7330;50.804;4.550;2024-03-29T03:27:35;10.80;99.90
14489;DHT22;7330;50.804;4.550;2024-03-29T03:32:28;10.80;99.90
14489;DHT22;7330;50.804;4.550;2024-03-29T03:39:47;10.80;99.90
14489;DHT22;7330;50.804;4.550;2024-03-29T03:44:41;10.70;99.90
14489;DHT22;7330;50.804;4.550;2024-03-29T03:47:07;10.80;99.90
14489;DHT22;7330;50.804;4.550;2024-03-29T03:49:34;10.80;99.90
14489;DHT22;7330;50.804;4.550;2024-03-29T03:52:00;10.80;99.90
14489;DHT22;7330;50.804;4.550;2024-03-29T03:54:26;10.70;99.90
14489;DHT22;7330;50.804;4.550;2024-03-29T04:01:46;10.70;99.90
14489;DHT22;7330;50.804;4.550;2024-03-29T04:11:35;10.70;99.90
14489;DHT22;7330;50.804;4.550;2024-03-29T04:14:02;10.70;99.90
14489;DHT22;7330;50.804;4.550;2024-03-29T04:21:22;10.70;99.90
14489;DHT22;7330;50.804;4.550;2024-03-29T04:31:08;10.70;99.90
14489;DHT22;7330;50.804;4.550;2024-03-29T04:33:36;10.70;99.90
14489;DHT22;7330;50.804;4.550;2024-03-29T04:36:02;10.70;99.90
14489;DHT22;7330;50.804;4.550;2024-03-29T04:38:31;10.80;99.90
14489;DHT22;7330;50.804;4.550;2024-03-29T04:48:18;10.80;99.90
14489;DHT22;7330;50.804;4.550;2024-03-29T04:50:45;10.80;99.90
14489;DHT22;7330;50.804;4.550;2024-03-29T04:53:11;10.80;99.90
14489;DHT22;7330;50.804;4.550;2024-03-29T04:58:09;10.80;99.90
14489;DHT22;7330;50.804;4.550;2024-03-29T05:05:29;10.90;99.90
14489;DHT22;7330;50.804;4.550;2024-03-29T05:07:56;10.90;99.90
14489;DHT22;7330;50.804;4.550;2024-03-29T05:10:23;10.90;99.90
14489;DHT22;7330;50.804;4.550;2024-03-29T05:12:49;10.90;99.90
14489;DHT22;7330;50.804;4.550;2024-03-29T05:15:18;10.90;99.90
14489;DHT22;7330;50.804;4.550;2024-03-29T05:17:45;10.90;99.90
14489;DHT22;7330;50.804;4.550;2024-03-29T05:20:12;10.90;99.90
14489;DHT22;7330;50.804;4.550;2024-03-29T05:22:38;10.90;99.90
14489;DHT22;7330;50.804;4.550;2024-03-29T05:27:33;10.90;99.90
14489;DHT22;7330;50.804;4.550;2024-03-29T05:34:55;10.90;99.90
14489;DHT22;7330;50.804;4.550;2024-03-29T05:39:51;10.90;99.90
14489;DHT22;7330;50.804;4.550;2024-03-29T05:44:51;10.80;99.90
14489;DHT22;7330;50.804;4.550;2024-03-29T05:47:17;10.90;99.90
14489;DHT22;7330;50.804;4.550;2024-03-29T05:52:13;10.90;99.90
14489;DHT22;7330;50.804;4.550;2024-03-29T05:57:07;10.90;99.90
14489;DHT22;7330;50.804;4.550;2024-03-29T05:59:33;10.90;99.90
14489;DHT22;7330;50.804;4.550;2024-03-29T06:02:03;10.90;99.90
14489;DHT22;7330;50.804;4.550;2024-03-29T06:04:30;11.00;99.90
14489;DHT22;7330;50.804;4.550;2024-03-29T06:06:57;10.90;99.90
14489;DHT22;7330;50.804;4.550;2024-03-29T06:11:53;10.90;99.90
14489;DHT22;7330;50.804;4.550;2024-03-29T06:22:17;10.90;99.90
14489;DHT22;7330;50.804;4.550;2024-03-29T06:27:11;10.90;99.90
14489;DHT22;7330;50.804;4.550;2024-03-29T06:32:05;10.90;99.90
14489;DHT22;7330;50.804;4.550;2024-03-29T06:34:32;11.00;99.90
14489;DHT22;7330;50.804;4.550;2024-03-29T06:39:26;11.00;99.90
14489;DHT22;7330;50.804;4.550;2024-03-29T06:54:09;11.10;99.90
14489;DHT22;7330;50.804;4.550;2024-03-29T06:59:03;11.20;99.90
14489;DHT22;7330;50.804;4.550;2024-03-29T07:06:24;11.20;99.90
14489;DHT22;7330;50.804;4.550;2024-03-29T07:08:51;11.20;99.90
14489;DHT22;7330;50.804;4.550;2024-03-29T07:13:46;11.30;99.90
14489;DHT22;7330;50.804;4.550;2024-03-29T07:21:07;11.40;99.90
14489;DHT22;7330;50.804;4.550;2024-03-29T07:23:33;11.30;99.90
14489;DHT22;7330;50.804;4.550;2024-03-29T07:28:28;11.40;99.90
14489;DHT22;7330;50.804;4.550;2024-03-29T07:30:56;11.30;99.90
14489;DHT22;7330;50.804;4.550;2024-03-29T07:35:51;11.40;99.90
14489;DHT22;7330;50.804;4.550;2024-03-29T07:38:18;11.40;99.90
14489;DHT22;7330;50.804;4.550;2024-03-29T07:40:46;11.50;99.90
14489;DHT22;7330;50.804;4.550;2024-03-29T07:45:40;11.50;99.90
14489;DHT22;7330;50.804;4.550;2024-03-29T07:50:37;11.50;99.90
14489;DHT22;7330;50.804;4.550;2024-03-29T07:53:04;11.50;99.90
14489;DHT22;7330;50.804;4.550;2024-03-29T07:55:30;11.50;99.90
14489;DHT22;7330;50.804;4.550;2024-03-29T07:57:57;11.50;99.90
14489;DHT22;7330;50.804;4.550;2024-03-29T08:02:51;11.50;99.90
14489;DHT22;7330;50.804;4.550;2024-03-29T08:05:19;11.60;99.90
14489;DHT22;7330;50.804;4.550;2024-03-29T08:07:47;11.60;99.90
14489;DHT22;7330;50.804;4.550;2024-03-29T08:12:41;11.70;99.90
14489;DHT22;7330;50.804;4.550;2024-03-29T08:20:02;11.80;99.90
14489;DHT22;7330;50.804;4.550;2024-03-29T08:22:28;11.80;99.90
14489;DHT22;7330;50.804;4.550;2024-03-29T08:29:54;11.90;99.90
14489;DHT22;7330;50.804;4.550;2024-03-29T08:37:15;12.00;99.90
14489;DHT22;7330;50.804;4.550;2024-03-29T08:49:32;12.30;99.90
14489;DHT22;7330;50.804;4.550;2024-03-29T08:54:30;12.40;99.90
14489;DHT22;7330;50.804;4.550;2024-03-29T08:56:57;12.50;99.90
14489;DHT22;7330;50.804;4.550;2024-03-29T09:04:18;12.70;99.90
14489;DHT22;7330;50.804;4.550;2024-03-29T09:06:47;12.80;99.90
14489;DHT22;7330;50.804;4.550;2024-03-29T09:19:02;13.30;99.90
14489;DHT22;7330;50.804;4.550;2024-03-29T09:23:58;13.60;99.90
14489;DHT22;7330;50.804;4.550;2024-03-29T09:26:25;13.70;99.90
14489;DHT22;7330;50.804;4.550;2024-03-29T09:36:19;14.10;99.90
14489;DHT22;7330;50.804;4.550;2024-03-29T09:38:46;14.30;99.90
14489;DHT22;7330;50.804;4.550;2024-03-29T09:46:08;14.50;99.90
14489;DHT22;7330;50.804;4.550;2024-03-29T09:48:35;14.60;99.90
14489;DHT22;7330;50.804;4.550;2024-03-29T09:51:03;14.70;99.90
14489;DHT22;7330;50.804;4.550;2024-03-29T09:53:31;14.80;99.90
14489;DHT22;7330;50.804;4.550;2024-03-29T10:00:53;15.00;99.90
14489;DHT22;7330;50.804;4.550;2024-03-29T10:06:04;15.00;99.90
14489;DHT22;7330;50.804;4.550;2024-03-29T10:13:28;15.30;99.90
14489;DHT22;7330;50.804;4.550;2024-03-29T10:15:55;15.30;99.90
14489;DHT22;7330;50.804;4.550;2024-03-29T10:28:12;15.60;99.90
14489;DHT22;7330;50.804;4.550;2024-03-29T10:30:39;15.70;99.90
14489;DHT22;7330;50.804;4.550;2024-03-29T10:50:19;16.40;99.90
14489;DHT22;7330;50.804;4.550;2024-03-29T10:52:47;16.50;99.90
14489;DHT22;7330;50.804;4.550;2024-03-29T10:57:42;16.60;99.90
14489;DHT22;7330;50.804;4.550;2024-03-29T11:05:09;16.60;99.90
14489;DHT22;7330;50.804;4.550;2024-03-29T11:07:38;16.60;99.90
14489;DHT22;7330;50.804;4.550;2024-03-29T11:10:05;16.60;99.90
14489;DHT22;7330;50.804;4.550;2024-03-29T11:12:38;16.60;99.90
14489;DHT22;7330;50.804;4.550;2024-03-29T11:15:06;16.60;99.90
14489;DHT22;7330;50.804;4.550;2024-03-29T11:17:36;16.70;99.90
14489;DHT22;7330;50.804;4.550;2024-03-29T11:20:03;16.70;99.90
14489;DHT22;7330;50.804;4.550;2024-03-29T11:34:50;17.00;99.90
14489;DHT22;7330;50.804;4.550;2024-03-29T11:37:17;17.00;99.90
14489;DHT22;7330;50.804;4.550;2024-03-29T11:42:10;17.00;99.90
14489;DHT22;7330;50.804;4.550;2024-03-29T11:49:32;17.20;99.90
14489;DHT22;7330;50.804;4.550;2024-03-29T11:54:27;17.30;99.90
14489;DHT22;7330;50.804;4.550;2024-03-29T11:59:20;17.40;99.90
14489;DHT22;7330;50.804;4.550;2024-03-29T12:04:19;17.50;99.90
14489;DHT22;7330;50.804;4.550;2024-03-29T12:14:12;17.40;99.90
14489;DHT22;7330;50.804;4.550;2024-03-29T12:19:06;17.30;99.60
14489;DHT22;7330;50.804;4.550;2024-03-29T12:21:33;17.30;99.90
14489;DHT22;7330;50.804;4.550;2024-03-29T12:26:26;17.10;99.40
14489;DHT22;7330;50.804;4.550;2024-03-29T12:31:24;17.20;99.90
14489;DHT22;7330;50.804;4.550;2024-03-29T12:33:51;17.20;99.60
14489;DHT22;7330;50.804;4.550;2024-03-29T12:53:33;17.40;99.40
14489;DHT22;7330;50.804;4.550;2024-03-29T12:58:26;17.40;99.60
14489;DHT22;7330;50.804;4.550;2024-03-29T13:00:54;17.40;98.90
14489;DHT22;7330;50.804;4.550;2024-03-29T13:03:21;17.40;98.50
14489;DHT22;7330;50.804;4.550;2024-03-29T13:08:14;17.40;98.90
14489;DHT22;7330;50.804;4.550;2024-03-29T13:10:43;17.30;99.30
14489;DHT22;7330;50.804;4.550;2024-03-29T13:13:10;17.30;98.90
14489;DHT22;7330;50.804;4.550;2024-03-29T13:15:37;17.30;99.70
14489;DHT22;7330;50.804;4.550;2024-03-29T13:20:31;17.30;98.90
14489;DHT22;7330;50.804;4.550;2024-03-29T13:25:27;17.30;98.90
14489;DHT22;7330;50.804;4.550;2024-03-29T13:30:23;17.40;99.30
14489;DHT22;7330;50.804;4.550;2024-03-29T13:32:50;17.40;98.90
14489;DHT22;7330;50.804;4.550;2024-03-29T13:35:17;17.40;98.90
14489;DHT22;7330;50.804;4.550;2024-03-29T13:37:47;17.40;98.90
14489;DHT22;7330;50.804;4.550;2024-03-29T13:45:08;17.30;98.30
14489;DHT22;7330;50.804;4.550;2024-03-29T13:47:37;17.30;98.00
14489;DHT22;7330;50.804;4.550;2024-03-29T13:52:32;17.30;97.80
14489;DHT22;7330;50.804;4.550;2024-03-29T13:57:26;17.30;98.20
14489;DHT22;7330;50.804;4.550;2024-03-29T14:04:49;17.30;97.90
14489;DHT22;7330;50.804;4.550;2024-03-29T14:07:16;17.30;98.20
14489;DHT22;7330;50.804;4.550;2024-03-29T14:17:06;17.20;97.80
14489;DHT22;7330;50.804;4.550;2024-03-29T14:19:34;17.30;98.10
14489;DHT22;7330;50.804;4.550;2024-03-29T14:27:00;17.20;98.00
14489;DHT22;7330;50.804;4.550;2024-03-29T14:29:26;17.20;98.00
14489;DHT22;7330;50.804;4.550;2024-03-29T14:31:53;17.30;98.30
14489;DHT22;7330;50.804;4.550;2024-03-29T14:36:47;17.30;98.30
14489;DHT22;7330;50.804;4.550;2024-03-29T14:46:40;17.20;98.40
14489;DHT22;7330;50.804;4.550;2024-03-29T14:49:06;17.20;98.80
14489;DHT22;7330;50.804;4.550;2024-03-29T15:01:23;17.20;98.80
14489;DHT22;7330;50.804;4.550;2024-03-29T15:03:52;17.10;98.80
14489;DHT22;7330;50.804;4.550;2024-03-29T15:06:19;17.10;98.80
14489;DHT22;7330;50.804;4.550;2024-03-29T15:08:48;17.10;98.10
14489;DHT22;7330;50.804;4.550;2024-03-29T15:18:36;17.10;98.80
14489;DHT22;7330;50.804;4.550;2024-03-29T15:21:05;17.10;98.80
14489;DHT22;7330;50.804;4.550;2024-03-29T15:23:33;17.00;98.70
14489;DHT22;7330;50.804;4.550;2024-03-29T15:28:29;16.90;98.60
14489;DHT22;7330;50.804;4.550;2024-03-29T15:38:35;16.90;98.70
14489;DHT22;7330;50.804;4.550;2024-03-29T15:43:30;16.90;98.70
14489;DHT22;7330;50.804;4.550;2024-03-29T15:48:24;16.90;98.50
14489;DHT22;7330;50.804;4.550;2024-03-29T15:50:51;16.90;98.70
14489;DHT22;7330;50.804;4.550;2024-03-29T15:55:46;16.90;98.70
14489;DHT22;7330;50.804;4.550;2024-03-29T15:58:12;16.90;98.50
14489;DHT22;7330;50.804;4.550;2024-03-29T16:05:36;16.90;98.20
14489;DHT22;7330;50.804;4.550;2024-03-29T16:10:30;17.00;98.50
14489;DHT22;7330;50.804;4.550;2024-03-29T16:12:58;16.90;98.70
14489;DHT22;7330;50.804;4.550;2024-03-29T16:17:51;16.90;98.40
14489;DHT22;7330;50.804;4.550;2024-03-29T16:20:18;16.90;98.40
14489;DHT22;7330;50.804;4.550;2024-03-29T16:27:36;16.80;98.40
14489;DHT22;7330;50.804;4.550;2024-03-29T16:37:24;16.80;98.50
14489;DHT22;7330;50.804;4.550;2024-03-29T16:42:19;16.80;98.60
14489;DHT22;7330;50.804;4.550;2024-03-29T16:44:46;16.80;98.60
14489;DHT22;7330;50.804;4.550;2024-03-29T16:49:39;16.80;98.60
14489;DHT22;7330;50.804;4.550;2024-03-29T16:52:05;16.80;98.60
14489;DHT22;7330;50.804;4.550;2024-03-29T16:54:33;16.80;98.60
14489;DHT22;7330;50.804;4.550;2024-03-29T17:04:21;16.80;98.60
14489;DHT22;7330;50.804;4.550;2024-03-29T17:06:46;16.70;98.60
14489;DHT22;7330;50.804;4.550;2024-03-29T17:19:02;16.80;98.60
14489;DHT22;7330;50.804;4.550;2024-03-29T17:26:21;16.70;98.80
14489;DHT22;7330;50.804;4.550;2024-03-29T17:33:41;16.70;99.00
14489;DHT22;7330;50.804;4.550;2024-03-29T17:41:02;16.70;99.10
14489;DHT22;7330;50.804;4.550;2024-03-29T17:45:55;16.60;99.20
14489;DHT22;7330;50.804;4.550;2024-03-29T17:48:22;16.60;99.30
14489;DHT22;7330;50.804;4.550;2024-03-29T18:00:36;16.50;99.50
14489;DHT22;7330;50.804;4.550;2024-03-29T18:03:03;16.40;99.50
14489;DHT22;7330;50.804;4.550;2024-03-29T18:05:29;16.40;99.50
14489;DHT22;7330;50.804;4.550;2024-03-29T18:07:55;16.40;99.60
14489;DHT22;7330;50.804;4.550;2024-03-29T18:10:21;16.40;99.60
14489;DHT22;7330;50.804;4.550;2024-03-29T18:25:02;16.20;99.90
14489;DHT22;7330;50.804;4.550;2024-03-29T18:27:28;16.20;99.90
14489;DHT22;7330;50.804;4.550;2024-03-29T18:34:47;16.00;99.90
14489;DHT22;7330;50.804;4.550;2024-03-29T18:49:29;15.70;99.90
14489;DHT22;7330;50.804;4.550;2024-03-29T18:51:56;15.60;99.90
14489;DHT22;7330;50.804;4.550;2024-03-29T18:54:22;15.60;99.90
14489;DHT22;7330;50.804;4.550;2024-03-29T18:56:48;15.60;99.90
14489;DHT22;7330;50.804;4.550;2024-03-29T19:06:36;15.50;99.90
14489;DHT22;7330;50.804;4.550;2024-03-29T19:09:02;15.50;99.90
14489;DHT22;7330;50.804;4.550;2024-03-29T19:11:28;15.50;99.90
14489;DHT22;7330;50.804;4.550;2024-03-29T19:13:54;15.50;99.90
14489;DHT22;7330;50.804;4.550;2024-03-29T19:18:49;15.40;99.90
14489;DHT22;7330;50.804;4.550;2024-03-29T19:23:43;15.30;99.90
14489;DHT22;7330;50.804;4.550;2024-03-29T19:26:11;15.30;99.90
14489;DHT22;7330;50.804;4.550;2024-03-29T19:28:37;15.30;99.90
14489;DHT22;7330;50.804;4.550;2024-03-29T19:31:04;15.30;99.90
14489;DHT22;7330;50.804;4.550;2024-03-29T19:33:29;15.30;99.90
14489;DHT22;7330;50.804;4.550;2024-03-29T19:40:50;15.20;99.90
14489;DHT22;7330;50.804;4.550;2024-03-29T19:48:09;15.20;99.90
14489;DHT22;7330;50.804;4.550;2024-03-29T19:50:39;15.20;99.90
14489;DHT22;7330;50.804;4.550;2024-03-29T19:55:32;15.10;99.90
14489;DHT22;7330;50.804;4.550;2024-03-29T19:57:59;15.10;99.90
14489;DHT22;7330;50.804;4.550;2024-03-29T20:00:26;15.10;99.90
14489;DHT22;7330;50.804;4.550;2024-03-29T20:15:06;15.00;99.90
14489;DHT22;7330;50.804;4.550;2024-03-29T20:19:59;15.00;99.90
14489;DHT22;7330;50.804;4.550;2024-03-29T20:24:52;15.00;99.90
14489;DHT22;7330;50.804;4.550;2024-03-29T20:29:45;15.00;99.90
14489;DHT22;7330;50.804;4.550;2024-03-29T20:32:12;15.00;99.90
14489;DHT22;7330;50.804;4.550;2024-03-29T20:54:21;14.70;99.90
14489;DHT22;7330;50.804;4.550;2024-03-29T20:56:46;14.70;99.90
14489;DHT22;7330;50.804;4.550;2024-03-29T21:01:40;14.60;99.90
14489;DHT22;7330;50.804;4.550;2024-03-29T21:07:09;14.50;99.90
14489;DHT22;7330;50.804;4.550;2024-03-29T21:09:37;14.40;99.90
14489;DHT22;7330;50.804;4.550;2024-03-29T21:19:25;14.30;99.90
14489;DHT22;7330;50.804;4.550;2024-03-29T21:21:51;14.30;99.90
14489;DHT22;7330;50.804;4.550;2024-03-29T21:24:18;14.20;99.90
14489;DHT22;7330;50.804;4.550;2024-03-29T21:29:12;14.10;99.90
14489;DHT22;7330;50.804;4.550;2024-03-29T21:34:05;14.10;99.90
14489;DHT22;7330;50.804;4.550;2024-03-29T21:36:31;14.10;99.90
14489;DHT22;7330;50.804;4.550;2024-03-29T21:41:24;14.00;99.90
14489;DHT22;7330;50.804;4.550;2024-03-29T21:43:51;14.00;99.90
14489;DHT22;7330;50.804;4.550;2024-03-29T21:46:19;14.00;99.90
14489;DHT22;7330;50.804;4.550;2024-03-29T21:48:45;14.00;99.90
14489;DHT22;7330;50.804;4.550;2024-03-29T21:56:06;14.00;99.90
14489;DHT22;7330;50.804;4.550;2024-03-29T22:03:26;13.90;99.90
14489;DHT22;7330;50.804;4.550;2024-03-29T22:05:53;13.80;99.90
14489;DHT22;7330;50.804;4.550;2024-03-29T22:08:19;13.80;99.90
14489;DHT22;7330;50.804;4.550;2024-03-29T22:18:05;13.80;99.90
14489;DHT22;7330;50.804;4.550;2024-03-29T22:20:33;13.70;99.90
14489;DHT22;7330;50.804;4.550;2024-03-29T22:27:52;13.70;99.90
14489;DHT22;7330;50.804;4.550;2024-03-29T22:30:18;13.70;99.90
14489;DHT22;7330;50.804;4.550;2024-03-29T22:35:11;13.60;99.90
14489;DHT22;7330;50.804;4.550;2024-03-29T22:37:38;13.60;99.90
14489;DHT22;7330;50.804;4.550;2024-03-29T22:40:05;13.60;99.90
14489;DHT22;7330;50.804;4.550;2024-03-29T22:52:17;13.50;99.90
14489;DHT22;7330;50.804;4.550;2024-03-29T23:02:04;13.50;99.90
14489;DHT22;7330;50.804;4.550;2024-03-29T23:09:24;13.50;99.90
14489;DHT22;7330;50.804;4.550;2024-03-29T23:11:50;13.50;99.90
14489;DHT22;7330;50.804;4.550;2024-03-29T23:14:16;13.50;99.90
14489;DHT22;7330;50.804;4.550;2024-03-29T23:31:23;13.50;99.90
14489;DHT22;7330;50.804;4.550;2024-03-29T23:43:36;13.40;99.90
14489;DHT22;7330;50.804;4.550;2024-03-29T23:46:03;13.40;99.90
14489;DHT22;7330;50.804;4.550;2024-03-29T23:53:24;13.40;99.90
14489;DHT22;7330;50.804;4.550;2024-03-29T23:55:50;13.40;99.90
